Time;durP1;ratioP1;P1;durP2;ratioP2;P2;SDS_P1;SDS_P2;PMS_P1;PMS_P2;Temp;Humidity;BMP_temperature;BMP_pressure;BME280_temperature;BME280_humidity;BME280_pressure;Samples;Min_cycle;Max_cycle;Signal;HPM_P1;HPM_P2
2023/03/01 00:01:05;;;;;;;1.58;0.93;;;2.90;99.90;;;;;;4956082;28;19976;-83
2023/03/01 00:03:32;;;;;;;1.85;1.02;;;2.90;99.90;;;;;;4959573;28;20448;-83
2023/03/01 00:06:00;;;;;;;2.00;0.75;;;2.80;99.90;;;;;;4938703;28;20051;-83
2023/03/01 00:08:27;;;;;;;2.22;1.00;;;2.70;99.90;;;;;;4955212;28;20448;-83
2023/03/01 00:11:06;;;;;;;2.05;0.80;;;2.70;99.90;;;;;;4951856;28;20278;-83
2023/03/01 00:13:35;;;;;;;2.67;1.35;;;2.60;99.90;;;;;;4953405;28;20648;-82
2023/03/01 00:16:15;;;;;;;1.33;0.70;;;2.60;99.90;;;;;;4958178;28;20213;-83
2023/03/01 00:18:43;;;;;;;1.60;0.90;;;2.60;99.90;;;;;;4953475;28;20098;-83
2023/03/01 00:21:10;;;;;;;4.82;1.65;;;2.60;99.90;;;;;;4951839;28;20142;-84
2023/03/01 00:23:37;;;;;;;2.15;1.02;;;2.60;99.90;;;;;;4951034;28;20075;-83
2023/03/01 00:26:11;;;;;;;1.60;0.70;;;2.60;99.90;;;;;;4953096;28;20138;-84
2023/03/01 00:28:40;;;;;;;3.08;0.70;;;2.60;99.90;;;;;;4955267;28;20063;-83
2023/03/01 00:31:09;;;;;;;0.70;0.55;;;2.70;99.90;;;;;;4953570;28;20488;-84
2023/03/01 00:33:37;;;;;;;2.20;1.08;;;2.70;99.90;;;;;;4953016;28;20051;-84
2023/03/01 00:36:05;;;;;;;3.70;0.93;;;2.70;99.90;;;;;;4954707;28;20053;-83
2023/03/01 00:38:36;;;;;;;3.72;0.90;;;2.70;99.90;;;;;;4953453;28;20078;-83
2023/03/01 00:41:05;;;;;;;1.45;0.88;;;2.70;99.90;;;;;;4951571;28;20416;-84
2023/03/01 00:43:36;;;;;;;1.95;0.75;;;2.80;99.90;;;;;;4954519;28;20071;-82
2023/03/01 00:46:09;;;;;;;2.40;1.00;;;2.80;99.90;;;;;;4958440;28;20531;-83
2023/03/01 00:48:37;;;;;;;1.45;1.10;;;2.70;99.90;;;;;;4956778;28;20528;-84
2023/03/01 00:51:06;;;;;;;1.63;0.77;;;2.70;99.90;;;;;;4956217;28;20051;-84
2023/03/01 00:53:33;;;;;;;1.45;0.63;;;2.70;99.90;;;;;;4952879;28;20058;-84
2023/03/01 00:56:01;;;;;;;0.75;0.75;;;2.60;99.90;;;;;;4936709;28;20531;-85
2023/03/01 00:58:28;;;;;;;1.95;0.70;;;2.60;99.90;;;;;;4951693;28;20059;-83
2023/03/01 01:00:55;;;;;;;1.10;0.63;;;2.60;99.90;;;;;;4956752;28;20516;-83
2023/03/01 01:03:24;;;;;;;1.35;0.70;;;2.60;99.90;;;;;;4953367;28;20154;-84
2023/03/01 01:05:52;;;;;;;2.50;1.10;;;2.60;99.90;;;;;;4953748;28;20086;-83
2023/03/01 01:08:20;;;;;;;1.65;0.85;;;2.60;99.90;;;;;;4948885;28;20133;-84
2023/03/01 01:10:47;;;;;;;1.25;0.70;;;2.60;99.90;;;;;;4952237;28;20057;-84
2023/03/01 01:13:14;;;;;;;3.40;1.20;;;2.50;99.90;;;;;;4958867;28;20524;-84
2023/03/01 01:15:41;;;;;;;1.13;0.95;;;2.50;99.90;;;;;;4952506;28;20105;-83
2023/03/01 01:18:08;;;;;;;2.70;0.90;;;2.50;99.90;;;;;;4957729;28;20043;-84
2023/03/01 01:20:36;;;;;;;2.92;1.00;;;2.40;99.90;;;;;;4950614;28;20051;-84
2023/03/01 01:23:05;;;;;;;0.93;0.70;;;2.40;99.90;;;;;;4960282;28;20185;-83
2023/03/01 01:25:34;;;;;;;1.10;0.70;;;2.40;99.90;;;;;;4953342;28;20501;-84
2023/03/01 01:28:02;;;;;;;1.33;0.63;;;2.40;99.90;;;;;;4953611;28;20160;-84
2023/03/01 01:30:28;;;;;;;3.40;0.88;;;2.40;99.90;;;;;;4958506;28;20083;-84
2023/03/01 01:32:55;;;;;;;3.70;0.75;;;2.40;99.90;;;;;;4963569;28;20104;-84
2023/03/01 01:35:22;;;;;;;2.28;0.82;;;2.40;99.90;;;;;;4962935;28;20066;-84
2023/03/01 01:37:49;;;;;;;3.05;1.48;;;2.50;99.90;;;;;;4952563;28;20058;-83
2023/03/01 01:40:16;;;;;;;1.13;0.98;;;2.40;99.90;;;;;;4955758;28;20515;-84
2023/03/01 01:42:43;;;;;;;0.77;0.50;;;2.40;99.90;;;;;;4958409;28;20067;-83
2023/03/01 01:45:33;;;;;;;3.17;0.77;;;2.40;99.90;;;;;;4967330;28;20066;-83
2023/03/01 01:48:09;;;;;;;5.97;1.05;;;2.40;99.90;;;;;;4956128;28;20059;-83
2023/03/01 01:50:40;;;;;;;2.92;1.30;;;2.40;99.90;;;;;;4959028;28;20173;-84
2023/03/01 01:53:16;;;;;;;2.78;0.80;;;2.30;99.90;;;;;;4960115;28;20125;-83
2023/03/01 01:55:48;;;;;;;1.17;0.73;;;2.30;99.90;;;;;;4960619;28;20051;-84
2023/03/01 01:58:19;;;;;;;1.92;1.33;;;2.40;99.90;;;;;;4954658;28;20412;-84
2023/03/01 02:00:47;;;;;;;2.90;1.05;;;2.40;99.90;;;;;;4956798;28;20134;-84
2023/03/01 02:03:22;;;;;;;3.08;0.80;;;2.40;99.90;;;;;;4964319;28;20125;-84
2023/03/01 02:06:04;;;;;;;1.70;0.55;;;2.40;99.90;;;;;;4950517;28;20055;-82
2023/03/01 02:08:37;;;;;;;1.83;1.20;;;2.50;99.90;;;;;;4959430;28;20559;-84
2023/03/01 02:11:05;;;;;;;0.98;0.70;;;2.50;99.90;;;;;;4957310;28;20572;-84
2023/03/01 02:13:33;;;;;;;3.22;1.05;;;2.50;99.90;;;;;;4960511;28;20376;-84
2023/03/01 02:16:12;;;;;;;1.02;0.63;;;2.50;99.90;;;;;;4958004;28;20146;-83
2023/03/01 02:18:41;;;;;;;1.20;0.88;;;2.50;99.90;;;;;;4958084;28;20063;-83
2023/03/01 02:21:21;;;;;;;0.95;0.70;;;2.50;99.90;;;;;;4956951;28;20051;-84
2023/03/01 02:23:48;;;;;;;3.05;1.00;;;2.40;99.90;;;;;;4958414;28;22411;-82
2023/03/01 02:26:25;;;;;;;4.70;0.70;;;2.40;99.90;;;;;;4959355;28;20169;-84
2023/03/01 02:28:52;;;;;;;2.65;0.50;;;2.30;99.90;;;;;;4956924;28;20075;-84
2023/03/01 02:34:08;;;;;;;1.58;0.70;;;2.30;99.90;;;;;;4956954;28;20062;-84
2023/03/01 02:36:39;;;;;;;1.30;0.70;;;2.30;99.90;;;;;;4954824;28;20138;-83
2023/03/01 02:39:07;;;;;;;;;;;2.30;99.90;;;;;;4975637;28;20106;-84
2023/03/01 02:41:36;;;;;;;1.80;0.63;;;2.30;99.90;;;;;;4953762;28;20085;-84
2023/03/01 02:44:05;;;;;;;3.42;0.88;;;2.30;99.90;;;;;;4958139;28;20464;-84
2023/03/01 02:46:32;;;;;;;2.75;0.88;;;2.30;99.90;;;;;;4954098;28;20086;-84
2023/03/01 02:48:59;;;;;;;3.72;1.35;;;2.30;99.90;;;;;;4957793;28;20049;-84
2023/03/01 02:51:48;;;;;;;1.92;1.33;;;2.30;99.90;;;;;;4941911;28;20051;-83
2023/03/01 02:54:31;;;;;;;1.65;0.80;;;2.30;99.90;;;;;;4936193;28;20058;-84
2023/03/01 02:56:59;;;;;;;4.07;0.88;;;2.30;99.90;;;;;;4954043;28;20062;-85
2023/03/01 02:59:33;;;;;;;4.03;0.98;;;2.30;99.90;;;;;;4955108;28;20051;-84
2023/03/01 03:02:01;;;;;;;1.92;0.93;;;2.30;99.90;;;;;;4949357;28;20051;-84
2023/03/01 03:04:28;;;;;;;2.00;0.95;;;2.20;99.90;;;;;;4958027;28;20070;-84
2023/03/01 03:06:55;;;;;;;1.83;0.80;;;2.20;99.90;;;;;;4949997;28;20050;-84
2023/03/01 03:09:22;;;;;;;1.40;0.70;;;2.20;99.90;;;;;;4963274;28;20062;-84
2023/03/01 03:11:49;;;;;;;3.50;2.45;;;2.10;99.90;;;;;;4939083;28;20093;-84
2023/03/01 03:14:17;;;;;;;6.82;1.02;;;2.10;99.90;;;;;;4948441;28;20046;-84
2023/03/01 03:16:49;;;;;;;5.13;1.00;;;2.10;99.90;;;;;;4937256;28;20063;-84
2023/03/01 03:19:17;;;;;;;2.10;0.90;;;2.00;99.90;;;;;;4956548;28;20465;-85
2023/03/01 03:21:44;;;;;;;1.50;0.95;;;2.00;99.90;;;;;;4951342;28;20058;-84
2023/03/01 03:24:11;;;;;;;1.73;0.90;;;2.00;99.90;;;;;;4952744;28;20078;-84
2023/03/01 03:26:38;;;;;;;2.78;1.40;;;2.00;99.90;;;;;;4955669;28;20082;-85
2023/03/01 03:29:05;;;;;;;1.40;0.80;;;2.00;99.90;;;;;;4961585;28;20487;-84
2023/03/01 03:31:32;;;;;;;3.70;1.10;;;2.00;99.90;;;;;;4956975;28;20055;-83
2023/03/01 03:33:59;;;;;;;4.05;1.27;;;2.00;99.90;;;;;;4954524;28;20094;-84
2023/03/01 03:36:26;;;;;;;3.35;1.92;;;2.10;99.90;;;;;;4950315;28;20055;-84
2023/03/01 03:38:52;;;;;;;4.95;1.33;;;2.20;99.90;;;;;;4955715;28;20146;-84
2023/03/01 03:41:19;;;;;;;2.00;1.15;;;2.20;99.90;;;;;;4953626;28;20567;-84
2023/03/01 03:43:46;;;;;;;2.28;0.85;;;2.30;99.90;;;;;;4962220;28;20690;-83
2023/03/01 03:46:13;;;;;;;2.47;0.98;;;2.30;99.90;;;;;;4944784;28;20198;-81
2023/03/01 03:48:43;;;;;;;6.38;1.10;;;2.30;99.90;;;;;;4961877;28;20047;-81
2023/03/01 03:51:16;;;;;;;4.78;1.00;;;2.30;99.90;;;;;;4965886;28;20535;-83
2023/03/01 03:53:44;;;;;;;4.03;1.83;;;2.40;99.90;;;;;;4956568;28;20062;-82
2023/03/01 03:56:12;;;;;;;2.75;1.25;;;2.40;99.90;;;;;;4950332;28;20071;-81
2023/03/01 03:58:38;;;;;;;2.72;0.80;;;2.40;99.90;;;;;;4957878;28;20546;-81
2023/03/01 04:01:05;;;;;;;3.42;1.40;;;2.40;99.90;;;;;;4961037;28;20050;-82
2023/03/01 04:03:33;;;;;;;3.97;0.85;;;2.40;99.90;;;;;;4956369;28;20051;-81
2023/03/01 04:06:00;;;;;;;4.13;1.10;;;2.40;99.90;;;;;;4956824;28;20582;-83
2023/03/01 04:08:28;;;;;;;3.47;1.45;;;2.40;99.90;;;;;;4960557;28;20057;-82
2023/03/01 04:11:25;;;;;;;5.28;0.60;;;2.30;99.90;;;;;;4954470;28;20584;-82
2023/03/01 04:13:52;;;;;;;11.27;2.05;;;2.30;99.90;;;;;;4960066;28;20077;-83
2023/03/01 04:16:19;;;;;;;5.82;1.40;;;2.30;99.90;;;;;;4959059;28;20095;-81
2023/03/01 04:18:47;;;;;;;3.50;1.92;;;2.30;99.90;;;;;;4959491;28;20047;-83
2023/03/01 04:21:14;;;;;;;4.32;1.42;;;2.30;99.90;;;;;;4962872;28;20512;-81
2023/03/01 04:23:42;;;;;;;5.97;1.00;;;2.20;99.90;;;;;;4956544;28;20114;-83
2023/03/01 04:26:09;;;;;;;2.25;0.70;;;2.20;99.90;;;;;;4962422;28;20039;-82
2023/03/01 04:28:44;;;;;;;9.45;2.35;;;2.20;99.90;;;;;;4961125;28;20092;-81
2023/03/01 04:31:16;;;;;;;5.97;1.67;;;2.20;99.90;;;;;;4961882;28;20061;-81
2023/03/01 04:33:45;;;;;;;5.75;0.90;;;2.20;99.90;;;;;;4953897;28;20146;-81
2023/03/01 04:36:14;;;;;;;4.75;1.20;;;2.20;99.90;;;;;;4956609;28;20063;-81
2023/03/01 04:38:42;;;;;;;5.63;1.52;;;2.20;99.90;;;;;;4960330;28;20113;-81
2023/03/01 04:41:10;;;;;;;4.55;1.13;;;2.10;99.90;;;;;;4943122;28;20390;-83
2023/03/01 04:43:37;;;;;;;2.35;1.20;;;2.10;99.90;;;;;;4956419;28;20046;-82
2023/03/01 04:46:09;;;;;;;4.97;1.13;;;2.10;99.90;;;;;;4955438;28;20601;-82
2023/03/01 04:48:37;;;;;;;2.50;1.25;;;2.10;99.90;;;;;;4961658;28;20042;-82
2023/03/01 04:51:05;;;;;;;5.10;1.33;;;2.10;99.90;;;;;;4957393;28;20074;-84
2023/03/01 04:53:33;;;;;;;6.32;0.88;;;2.10;99.90;;;;;;4954542;28;20079;-81
2023/03/01 04:56:00;;;;;;;4.25;2.50;;;2.00;99.90;;;;;;4956731;28;20071;-81
2023/03/01 04:58:28;;;;;;;5.05;1.08;;;2.00;99.90;;;;;;4952748;28;20174;-83
2023/03/01 05:00:55;;;;;;;4.65;0.70;;;2.00;99.90;;;;;;4956577;28;20050;-83
2023/03/01 05:03:22;;;;;;;6.35;2.25;;;2.00;99.90;;;;;;4957757;28;20047;-81
2023/03/01 05:05:52;;;;;;;4.03;0.80;;;2.00;99.90;;;;;;4962744;28;23146;-83
2023/03/01 05:08:20;;;;;;;2.67;0.63;;;1.90;99.90;;;;;;4956134;28;20149;-82
2023/03/01 05:10:52;;;;;;;2.55;1.17;;;1.90;99.90;;;;;;4958739;28;20404;-81
2023/03/01 05:13:20;;;;;;;1.60;0.65;;;1.90;99.90;;;;;;4962868;28;20049;-82
2023/03/01 05:15:53;;;;;;;6.65;1.55;;;1.90;99.90;;;;;;4956621;28;20118;-83
2023/03/01 05:18:20;;;;;;;4.88;1.75;;;1.80;99.90;;;;;;4963754;28;20055;-82
2023/03/01 05:20:47;;;;;;;7.88;1.80;;;1.80;99.90;;;;;;4958505;28;20051;-82
2023/03/01 05:23:14;;;;;;;2.92;0.85;;;1.80;99.90;;;;;;4958331;28;20579;-83
2023/03/01 05:25:41;;;;;;;5.30;1.30;;;1.70;99.90;;;;;;4957597;28;20138;-82
2023/03/01 05:28:12;;;;;;;1.65;0.75;;;1.70;99.90;;;;;;4957331;28;20047;-81
2023/03/01 05:30:39;;;;;;;2.75;0.70;;;1.70;99.90;;;;;;4960306;28;20129;-81
2023/03/01 05:33:12;;;;;;;6.60;1.08;;;1.70;99.90;;;;;;4954276;28;20318;-83
2023/03/01 05:35:42;;;;;;;3.60;0.75;;;1.70;99.90;;;;;;4958563;28;20146;-83
2023/03/01 05:38:13;;;;;;;13.02;1.42;;;1.70;99.90;;;;;;4962451;28;20051;-81
2023/03/01 05:40:42;;;;;;;7.40;1.27;;;1.60;99.90;;;;;;4959163;28;20773;-82
2023/03/01 05:43:09;;;;;;;8.23;1.20;;;1.70;99.90;;;;;;4961768;28;20043;-81
2023/03/01 05:45:37;;;;;;;3.95;1.17;;;1.60;99.90;;;;;;4961222;28;20090;-81
2023/03/01 05:48:06;;;;;;;4.95;0.90;;;1.60;99.90;;;;;;4961086;28;20047;-81
2023/03/01 05:50:36;;;;;;;3.38;0.95;;;1.60;99.90;;;;;;4958004;28;20079;-83
2023/03/01 05:53:11;;;;;;;4.72;0.60;;;1.60;99.90;;;;;;4954970;28;20053;-82
2023/03/01 05:55:39;;;;;;;2.15;0.50;;;1.60;99.90;;;;;;4951316;28;20082;-81
2023/03/01 05:58:09;;;;;;;4.80;0.80;;;1.70;99.90;;;;;;4957026;28;20098;-82
2023/03/01 06:00:36;;;;;;;3.42;0.93;;;1.60;99.90;;;;;;4960300;28;20093;-82
2023/03/01 06:03:03;;;;;;;3.00;1.40;;;1.60;99.90;;;;;;4958731;28;20051;-81
2023/03/01 06:05:30;;;;;;;3.60;0.90;;;1.60;99.90;;;;;;4957530;28;20055;-81
2023/03/01 06:08:01;;;;;;;2.47;1.13;;;1.50;99.90;;;;;;4957719;28;20042;-81
2023/03/01 06:10:29;;;;;;;3.88;0.98;;;1.50;99.90;;;;;;4957830;28;20055;-83
2023/03/01 06:12:56;;;;;;;4.57;1.17;;;1.50;99.90;;;;;;4962333;28;20477;-82
2023/03/01 06:15:24;;;;;;;9.75;1.33;;;1.50;99.90;;;;;;4956230;28;20055;-82
2023/03/01 06:17:54;;;;;;;7.32;1.17;;;1.50;99.90;;;;;;4962947;28;20066;-82
2023/03/01 06:20:25;;;;;;;2.17;0.63;;;1.50;99.90;;;;;;4967895;28;20498;-82
2023/03/01 06:22:52;;;;;;;2.80;0.60;;;1.60;99.90;;;;;;4962388;28;20109;-82
2023/03/01 06:25:22;;;;;;;8.13;0.77;;;1.60;99.90;;;;;;4962157;28;20109;-82
2023/03/01 06:27:49;;;;;;;5.13;1.42;;;1.70;99.90;;;;;;4958774;28;20062;-83
2023/03/01 06:30:19;;;;;;;6.45;0.88;;;1.70;99.90;;;;;;4966453;28;20279;-81
2023/03/01 06:32:45;;;;;;;4.93;0.80;;;1.70;99.90;;;;;;4960149;28;20162;-81
2023/03/01 06:35:14;;;;;;;6.93;0.98;;;1.70;99.90;;;;;;4964905;28;20070;-83
2023/03/01 06:37:41;;;;;;;8.40;0.93;;;1.60;99.90;;;;;;4957583;28;20102;-81
2023/03/01 06:40:11;;;;;;;8.35;3.40;;;1.60;99.90;;;;;;4963120;28;20129;-81
2023/03/01 06:42:39;;;;;;;11.05;1.33;;;1.70;99.90;;;;;;4962253;28;20075;-81
2023/03/01 06:45:08;;;;;;;4.78;1.20;;;1.70;99.90;;;;;;4962010;28;20055;-81
2023/03/01 06:47:35;;;;;;;3.35;0.75;;;1.70;99.90;;;;;;4957276;28;20146;-82
2023/03/01 06:50:03;;;;;;;5.55;1.55;;;1.90;99.90;;;;;;4965319;28;20142;-82
2023/03/01 06:52:29;;;;;;;7.03;2.10;;;1.90;99.90;;;;;;4963608;28;20115;-81
2023/03/01 06:54:56;;;;;;;6.35;2.15;;;2.00;99.90;;;;;;4957467;28;20075;-81
2023/03/01 06:57:23;;;;;;;4.47;1.27;;;2.00;99.90;;;;;;4959246;28;20055;-81
2023/03/01 06:59:50;;;;;;;4.97;1.95;;;2.10;99.90;;;;;;4956624;28;20728;-82
2023/03/01 07:02:17;;;;;;;5.50;0.93;;;2.10;99.90;;;;;;4966014;28;20039;-82
2023/03/01 07:04:44;;;;;;;5.90;2.15;;;2.10;99.90;;;;;;4958749;28;20169;-82
2023/03/01 07:07:11;;;;;;;4.20;1.15;;;2.20;99.90;;;;;;4957867;28;20512;-81
2023/03/01 07:09:38;;;;;;;4.07;1.52;;;2.20;99.90;;;;;;4958769;28;20054;-81
2023/03/01 07:12:06;;;;;;;1.30;0.60;;;2.30;99.90;;;;;;4963074;28;20130;-82
2023/03/01 07:14:32;;;;;;;9.30;1.80;;;2.30;99.90;;;;;;4955639;28;20074;-82
2023/03/01 07:16:59;;;;;;;4.68;1.48;;;2.40;99.90;;;;;;4954272;28;20146;-81
2023/03/01 07:19:26;;;;;;;3.35;1.05;;;2.40;99.90;;;;;;4961384;28;20106;-81
2023/03/01 07:21:55;;;;;;;4.68;1.05;;;2.40;99.90;;;;;;4956310;28;20036;-81
2023/03/01 07:24:22;;;;;;;4.70;0.90;;;2.40;99.90;;;;;;4956466;28;20079;-82
2023/03/01 07:26:50;;;;;;;2.10;0.60;;;2.50;99.90;;;;;;4951926;28;20571;-82
2023/03/01 07:29:17;;;;;;;5.30;0.70;;;2.50;99.90;;;;;;4954231;28;20085;-81
2023/03/01 07:31:44;;;;;;;2.83;0.80;;;2.50;99.90;;;;;;4955474;28;20349;-80
2023/03/01 07:34:11;;;;;;;3.95;1.27;;;2.50;99.90;;;;;;4959900;28;20043;-81
2023/03/01 07:36:39;;;;;;;4.68;1.08;;;2.60;99.90;;;;;;4957336;28;20055;-83
2023/03/01 07:39:06;;;;;;;3.05;0.82;;;2.60;99.90;;;;;;4959939;28;20054;-81
2023/03/01 07:41:33;;;;;;;5.78;0.98;;;2.60;99.90;;;;;;4964625;28;20039;-83
2023/03/01 07:44:00;;;;;;;4.68;1.25;;;2.60;99.90;;;;;;4943652;28;20121;-82
2023/03/01 07:46:27;;;;;;;7.18;0.85;;;2.70;99.90;;;;;;4963211;28;20063;-81
2023/03/01 07:48:54;;;;;;;3.33;0.98;;;2.70;99.90;;;;;;4955679;28;20035;-81
2023/03/01 07:51:21;;;;;;;5.38;0.80;;;2.70;99.90;;;;;;4960658;28;20089;-82
2023/03/01 07:53:48;;;;;;;1.38;0.70;;;2.70;99.90;;;;;;4954198;28;20049;-82
2023/03/01 07:56:19;;;;;;;3.42;1.52;;;2.80;99.90;;;;;;4957835;28;20122;-81
2023/03/01 07:58:46;;;;;;;4.15;0.90;;;2.80;99.90;;;;;;4962953;28;20050;-84
2023/03/01 08:01:18;;;;;;;2.58;1.15;;;2.80;99.90;;;;;;4959079;28;20066;-84
2023/03/01 08:03:45;;;;;;;1.88;0.70;;;2.80;99.90;;;;;;4954978;28;20043;-82
2023/03/01 08:06:14;;;;;;;7.07;2.03;;;2.90;99.90;;;;;;4959873;28;20078;-83
2023/03/01 08:08:41;;;;;;;5.07;1.33;;;2.90;99.90;;;;;;4965711;28;20528;-82
2023/03/01 08:11:11;;;;;;;4.93;1.92;;;3.00;99.90;;;;;;4958799;28;20062;-82
2023/03/01 08:13:38;;;;;;;9.18;1.02;;;3.00;99.90;;;;;;4954992;28;20047;-82
2023/03/01 08:16:11;;;;;;;2.25;0.75;;;3.00;99.90;;;;;;4961007;28;20604;-82
2023/03/01 08:18:39;;;;;;;3.38;0.40;;;3.10;99.90;;;;;;4973925;28;20051;-81
2023/03/01 08:21:11;;;;;;;3.70;0.90;;;3.10;99.90;;;;;;4962120;28;20508;-82
2023/03/01 08:23:40;;;;;;;3.80;0.60;;;3.10;99.90;;;;;;4950827;28;20080;-81
2023/03/01 08:26:16;;;;;;;7.25;1.48;;;3.10;99.90;;;;;;4959956;28;20814;-82
2023/03/01 08:28:43;;;;;;;4.95;1.00;;;3.10;99.90;;;;;;4958447;28;20066;-83
2023/03/01 08:31:25;;;;;;;1.75;0.82;;;3.20;99.90;;;;;;4958651;28;20496;-82
2023/03/01 08:33:55;;;;;;;4.85;0.77;;;3.20;99.90;;;;;;4960241;28;20053;-82
2023/03/01 08:36:24;;;;;;;2.30;0.85;;;3.20;99.90;;;;;;4954794;28;20055;-81
2023/03/01 08:38:52;;;;;;;2.15;1.00;;;3.20;99.90;;;;;;4959390;28;20042;-82
2023/03/01 08:41:19;;;;;;;2.58;0.30;;;3.30;99.90;;;;;;4950999;28;20081;-81
2023/03/01 08:43:46;;;;;;;6.00;0.75;;;3.20;99.90;;;;;;4957869;28;20727;-81
2023/03/01 08:46:13;;;;;;;2.13;0.52;;;3.20;99.90;;;;;;4956526;28;20526;-82
2023/03/01 08:48:42;;;;;;;4.28;0.70;;;3.20;99.90;;;;;;4969326;28;20117;-82
2023/03/01 08:51:12;;;;;;;1.10;0.50;;;3.30;99.90;;;;;;4959146;28;20500;-82
2023/03/01 08:53:40;;;;;;;3.58;1.50;;;3.30;99.90;;;;;;4961078;28;20050;-81
2023/03/01 08:56:08;;;;;;;0.73;0.50;;;3.30;99.90;;;;;;4957936;28;20566;-81
2023/03/01 08:58:36;;;;;;;2.58;0.88;;;3.30;99.90;;;;;;4959854;28;20130;-81
2023/03/01 09:01:11;;;;;;;2.35;0.90;;;3.30;99.90;;;;;;4952092;28;20094;-82
2023/03/01 09:03:38;;;;;;;2.88;1.65;;;3.40;99.90;;;;;;4956707;28;20397;-82
2023/03/01 09:06:07;;;;;;;4.53;1.00;;;3.50;99.90;;;;;;4959521;28;20188;-82
2023/03/01 09:08:36;;;;;;;0.90;0.45;;;3.50;99.90;;;;;;4961195;28;20082;-82
2023/03/01 09:11:04;;;;;;;1.65;0.52;;;3.50;99.90;;;;;;4956046;28;20055;-82
2023/03/01 09:13:31;;;;;;;2.20;0.50;;;3.60;99.90;;;;;;4960083;28;20126;-83
2023/03/01 09:15:59;;;;;;;1.70;0.70;;;3.50;99.90;;;;;;4965665;28;20646;-83
2023/03/01 09:18:26;;;;;;;2.45;0.77;;;3.50;99.90;;;;;;4963350;28;20134;-82
2023/03/01 09:20:54;;;;;;;2.97;0.73;;;3.50;99.90;;;;;;4967684;28;20050;-83
2023/03/01 09:23:21;;;;;;;3.72;0.57;;;3.50;99.90;;;;;;4955990;28;20438;-82
2023/03/01 09:25:48;;;;;;;3.65;0.50;;;3.50;99.90;;;;;;4960844;28;20090;-83
2023/03/01 09:28:15;;;;;;;1.23;0.40;;;3.60;99.90;;;;;;4959168;28;20110;-81
2023/03/01 09:30:59;;;;;;;1.80;0.52;;;3.50;99.90;;;;;;4961210;28;20500;-81
2023/03/01 09:33:27;;;;;;;6.13;1.05;;;3.50;99.90;;;;;;4955144;28;20054;-83
2023/03/01 09:36:15;;;;;;;1.23;0.65;;;3.50;99.90;;;;;;4954602;28;20071;-82
2023/03/01 09:38:42;;;;;;;1.85;0.50;;;3.60;99.90;;;;;;4961376;28;20055;-83
2023/03/01 09:41:30;;;;;;;4.75;0.60;;;3.60;99.90;;;;;;4957642;28;20151;-82
2023/03/01 09:44:04;;;;;;;6.68;0.60;;;3.60;99.90;;;;;;4961924;28;20048;-82
2023/03/01 09:46:37;;;;;;;2.42;0.82;;;3.50;99.90;;;;;;4957359;28;20055;-82
2023/03/01 09:49:16;;;;;;;1.25;0.60;;;3.60;99.90;;;;;;4962630;28;20046;-82
2023/03/01 09:51:54;;;;;;;2.83;0.70;;;3.70;99.90;;;;;;4954887;28;20062;-82
2023/03/01 09:54:21;;;;;;;6.22;1.75;;;3.70;99.90;;;;;;4965193;28;20050;-82
2023/03/01 09:56:57;;;;;;;10.77;1.85;;;3.70;99.90;;;;;;4959444;28;20054;-82
2023/03/01 09:59:44;;;;;;;2.33;0.47;;;3.80;99.90;;;;;;4967578;28;20086;-82
2023/03/01 10:02:24;;;;;;;7.55;1.05;;;3.80;99.90;;;;;;4959006;28;20101;-82
2023/03/01 10:04:56;;;;;;;8.57;1.70;;;3.80;99.90;;;;;;4965269;28;20087;-83
2023/03/01 10:07:51;;;;;;;2.38;0.90;;;3.80;99.90;;;;;;4965347;28;20347;-83
2023/03/01 10:10:27;;;;;;;6.13;0.65;;;3.80;99.90;;;;;;4962449;28;20540;-81
2023/03/01 10:12:56;;;;;;;7.47;0.85;;;3.80;99.90;;;;;;4966324;28;20105;-82
2023/03/01 10:15:48;;;;;;;3.83;0.60;;;3.80;99.90;;;;;;4964005;28;20059;-82
2023/03/01 10:18:21;;;;;;;14.20;1.83;;;3.80;99.90;;;;;;4962215;28;20055;-82
2023/03/01 10:21:01;;;;;;;5.65;0.88;;;3.80;99.90;;;;;;4967568;28;20055;-83
2023/03/01 10:23:31;;;;;;;3.22;0.47;;;3.80;99.90;;;;;;4955883;28;20074;-82
2023/03/01 10:26:07;;;;;;;;;;;3.80;99.90;;;;;;4964303;28;20059;-84
2023/03/01 10:28:46;;;;;;;2.22;1.05;;;3.70;99.90;;;;;;4967776;28;20330;-83
2023/03/01 10:31:18;;;;;;;7.55;2.72;;;3.70;99.90;;;;;;4963924;28;20477;-82
2023/03/01 10:33:47;;;;;;;4.28;0.50;;;3.80;99.90;;;;;;4966813;28;20432;-82
2023/03/01 10:36:14;;;;;;;7.68;0.68;;;3.80;99.90;;;;;;4969707;28;20472;-82
2023/03/01 10:38:54;;;;;;;5.32;0.88;;;3.70;99.90;;;;;;4967288;28;20055;-82
2023/03/01 10:41:23;;;;;;;8.15;0.77;;;3.80;99.90;;;;;;4967349;28;20061;-82
2023/03/01 10:43:56;;;;;;;7.32;0.88;;;3.90;99.90;;;;;;4963473;28;20143;-82
2023/03/01 10:46:26;;;;;;;5.15;1.85;;;3.80;99.90;;;;;;4968297;28;20169;-82
2023/03/01 10:49:16;;;;;;;5.75;0.60;;;3.80;99.90;;;;;;4967805;28;20482;-82
2023/03/01 10:51:46;;;;;;;2.83;1.38;;;3.90;99.90;;;;;;4961397;28;20051;-83
2023/03/01 10:54:33;;;;;;;5.50;0.77;;;3.90;99.90;;;;;;4963453;28;20095;-82
2023/03/01 10:57:02;;;;;;;1.88;0.73;;;3.90;99.90;;;;;;4965534;28;20084;-83
2023/03/01 10:59:31;;;;;;;2.08;1.13;;;4.00;99.90;;;;;;4967623;28;20129;-81
2023/03/01 11:02:21;;;;;;;4.53;0.73;;;3.90;99.90;;;;;;4962151;28;20539;-82
2023/03/01 11:05:19;;;;;;;2.97;0.70;;;3.80;99.90;;;;;;4968856;28;20050;-82
2023/03/01 11:07:56;;;;;;;3.25;0.90;;;3.90;99.90;;;;;;4958819;28;20047;-83
2023/03/01 11:10:26;;;;;;;9.27;1.80;;;3.90;99.90;;;;;;4949803;28;20545;-82
2023/03/01 11:13:04;;;;;;;;;;;4.00;99.90;;;;;;4960429;28;20077;-82
2023/03/01 11:15:31;;;;;;;7.00;0.95;;;4.10;99.90;;;;;;4961229;28;19933;-83
2023/03/01 11:17:58;;;;;;;6.38;1.10;;;4.20;99.90;;;;;;4959766;28;20039;-82
2023/03/01 11:20:40;;;;;;;6.22;0.85;;;4.10;99.90;;;;;;4964320;28;20157;-82
2023/03/01 11:23:13;;;;;;;5.95;1.27;;;4.00;99.90;;;;;;4962525;28;20044;-82
2023/03/01 11:25:45;;;;;;;12.65;1.98;;;4.10;99.90;;;;;;4962166;28;20891;-83
2023/03/01 11:28:16;;;;;;;14.50;1.55;;;4.10;99.90;;;;;;4941224;28;20973;-83
2023/03/01 11:31:02;;;;;;;6.53;1.30;;;4.10;99.90;;;;;;4962247;28;20051;-82
2023/03/01 11:33:55;;;;;;;7.07;2.15;;;4.10;99.90;;;;;;4963690;28;20043;-83
2023/03/01 11:36:41;;;;;;;5.80;1.08;;;4.10;99.90;;;;;;4962782;28;20383;-83
2023/03/01 11:39:26;;;;;;;3.63;0.60;;;4.10;99.90;;;;;;4946504;28;20102;-83
2023/03/01 11:42:05;;;;;;;7.22;0.75;;;4.00;99.90;;;;;;4960857;28;20131;-82
2023/03/01 11:44:48;;;;;;;5.30;2.17;;;4.10;99.90;;;;;;4962870;28;20133;-82
2023/03/01 11:47:33;;;;;;;9.23;1.55;;;3.90;99.90;;;;;;4965027;28;20138;-82
2023/03/01 11:50:06;;;;;;;13.65;1.27;;;3.90;99.90;;;;;;4955546;28;20043;-82
2023/03/01 11:52:48;;;;;;;7.80;1.33;;;4.00;99.90;;;;;;4968625;28;20058;-82
2023/03/01 11:55:46;;;;;;;20.58;3.05;;;4.10;99.90;;;;;;4958539;28;20109;-82
2023/03/01 11:58:31;;;;;;;3.30;1.33;;;4.10;99.90;;;;;;4967685;28;20043;-83
2023/03/01 12:01:10;;;;;;;4.95;0.60;;;4.10;99.90;;;;;;4955402;28;20158;-82
2023/03/01 12:03:55;;;;;;;4.85;1.38;;;4.20;99.90;;;;;;4960094;28;20086;-82
2023/03/01 12:06:26;;;;;;;5.45;1.00;;;4.20;99.90;;;;;;4957908;28;20064;-83
2023/03/01 12:09:13;;;;;;;8.82;0.80;;;4.00;99.90;;;;;;4964786;28;20070;-82
2023/03/01 12:11:49;;;;;;;3.38;1.00;;;4.10;99.90;;;;;;4956424;28;20047;-81
2023/03/01 12:14:37;;;;;;;6.75;0.90;;;4.00;99.90;;;;;;4966987;28;20056;-83
2023/03/01 12:17:42;;;;;;;8.75;2.45;;;3.90;99.90;;;;;;4960069;28;20049;-81
2023/03/01 12:20:34;;;;;;;13.07;1.80;;;3.80;99.90;;;;;;4954402;28;20051;-82
2023/03/01 12:23:22;;;;;;;17.15;1.83;;;4.00;99.90;;;;;;4964196;28;20102;-82
2023/03/01 12:26:19;;;;;;;6.68;1.33;;;3.90;99.90;;;;;;4955354;28;20161;-81
2023/03/01 12:29:08;;;;;;;5.25;0.60;;;4.00;99.90;;;;;;4963638;28;20067;-82
2023/03/01 12:32:00;;;;;;;2.45;0.93;;;4.10;99.90;;;;;;4953963;28;20055;-82
2023/03/01 12:34:59;;;;;;;6.85;0.82;;;3.90;99.90;;;;;;4953625;28;20046;-80
2023/03/01 12:37:34;;;;;;;7.43;1.20;;;4.00;99.90;;;;;;4963497;28;20042;-80
2023/03/01 12:40:27;;;;;;;14.77;2.05;;;4.00;99.90;;;;;;4954128;28;20142;-81
2023/03/01 12:43:12;;;;;;;4.10;1.35;;;4.00;99.90;;;;;;4966819;28;20065;-80
2023/03/01 12:46:21;;;;;;;2.42;0.60;;;3.90;99.90;;;;;;4957054;28;20051;-80
2023/03/01 12:49:27;;;;;;;12.20;1.70;;;3.80;99.90;;;;;;4960775;28;20039;-80
2023/03/01 12:52:09;;;;;;;9.07;1.30;;;3.80;99.90;;;;;;4956166;28;20477;-80
2023/03/01 12:54:37;;;;;;;22.30;4.85;;;3.80;99.90;;;;;;4952183;28;20051;-80
2023/03/01 12:57:20;;;;;;;10.30;1.35;;;3.80;99.90;;;;;;4962696;28;20182;-80
2023/03/01 13:00:09;;;;;;;4.13;1.35;;;4.00;99.90;;;;;;4955439;28;20042;-81
2023/03/01 13:02:46;;;;;;;8.52;0.90;;;3.90;99.90;;;;;;4965505;28;20097;-80
2023/03/01 13:05:23;;;;;;;8.70;1.23;;;3.90;99.90;;;;;;4943980;28;20511;-81
2023/03/01 13:07:58;;;;;;;5.30;1.50;;;3.80;99.90;;;;;;4958115;28;20461;-81
2023/03/01 13:10:40;;;;;;;3.80;0.65;;;3.80;99.90;;;;;;4956408;28;20051;-81
2023/03/01 13:13:33;;;;;;;9.77;1.17;;;3.80;99.90;;;;;;4962889;28;20058;-82
2023/03/01 13:16:21;;;;;;;7.30;2.03;;;3.80;99.90;;;;;;4953843;28;20456;-82
2023/03/01 13:18:48;;;;;;;7.97;1.30;;;3.90;99.90;;;;;;4967036;28;20043;-82
2023/03/01 13:21:30;;;;;;;6.95;0.63;;;4.00;99.90;;;;;;4962966;28;20110;-81
2023/03/01 13:23:57;;;;;;;12.70;1.70;;;3.90;99.90;;;;;;4961744;28;20127;-81
2023/03/01 13:26:23;;;;;;;4.97;1.98;;;4.00;99.90;;;;;;4958400;28;20061;-81